Time;durP1;ratioP1;P1;durP2;ratioP2;P2;SDS_P1;SDS_P2;PMS_P1;PMS_P2;Temp;Humidity;BMP_temperature;BMP_pressure;BME280_temperature;BME280_humidity;BME280_pressure;Samples;Min_cycle;Max_cycle;Signal;HPM_P1;HPM_P2
2023/05/11 00:00:07;;;;;;;0.05;0.05;;;10.80;99.90;;;;;;5060354;28;20400;-79
2023/05/11 00:02:32;;;;;;;0.32;0.30;;;10.80;99.80;;;;;;5058313;28;20028;-79
2023/05/11 00:04:58;;;;;;;0.35;0.35;;;10.90;99.60;;;;;;5049087;28;20113;-80
2023/05/11 00:07:24;;;;;;;0.85;0.85;;;10.70;99.80;;;;;;5049181;28;20025;-80
2023/05/11 00:09:50;;;;;;;0.00;0.00;;;10.80;99.90;;;;;;5048365;28;20050;-81
2023/05/11 00:12:16;;;;;;;0.10;0.10;;;10.80;99.90;;;;;;5054383;28;20028;-81
2023/05/11 00:14:42;;;;;;;0.70;0.70;;;10.70;99.90;;;;;;5054250;28;20056;-81
2023/05/11 00:17:08;;;;;;;2.45;1.02;;;10.70;99.90;;;;;;5045334;28;20120;-81
2023/05/11 00:19:33;;;;;;;0.35;0.35;;;10.70;99.90;;;;;;5050588;28;20029;-81
2023/05/11 00:21:59;;;;;;;1.50;0.85;;;10.60;99.90;;;;;;5051804;28;20056;-82
2023/05/11 00:24:25;;;;;;;0.10;0.10;;;10.60;99.90;;;;;;5048246;28;20109;-81
2023/05/11 00:26:51;;;;;;;0.10;0.10;;;10.60;99.90;;;;;;5054112;28;20070;-81
2023/05/11 00:29:17;;;;;;;0.47;0.47;;;10.60;99.90;;;;;;5044982;28;20571;-80
2023/05/11 00:31:46;;;;;;;0.10;0.10;;;10.50;99.90;;;;;;5053713;28;21586;-79
2023/05/11 00:34:13;;;;;;;0.10;0.10;;;10.50;99.90;;;;;;5052811;28;20495;-81
2023/05/11 00:36:39;;;;;;;0.68;0.55;;;10.40;99.90;;;;;;5056578;28;20062;-80
2023/05/11 00:39:05;;;;;;;0.17;0.17;;;10.50;99.90;;;;;;5060934;28;20480;-80
2023/05/11 00:41:30;;;;;;;0.10;0.10;;;10.50;99.90;;;;;;5051312;28;20029;-79
2023/05/11 00:43:56;;;;;;;0.77;0.77;;;10.50;99.90;;;;;;5058351;28;20123;-79
2023/05/11 00:46:22;;;;;;;2.80;0.98;;;10.50;99.90;;;;;;5055933;28;20755;-81
2023/05/11 00:48:48;;;;;;;0.10;0.10;;;10.60;99.90;;;;;;5053928;28;20464;-79
2023/05/11 00:51:14;;;;;;;0.10;0.10;;;10.70;99.90;;;;;;5058293;28;20127;-78
2023/05/11 00:53:40;;;;;;;0.20;0.20;;;10.70;99.90;;;;;;5056667;28;20047;-79
2023/05/11 00:56:06;;;;;;;0.10;0.10;;;10.70;99.90;;;;;;5046232;28;20029;-79
2023/05/11 00:58:31;;;;;;;27.90;1.13;;;10.70;99.90;;;;;;5054951;28;20040;-79
2023/05/11 01:00:57;;;;;;;0.17;0.17;;;10.70;99.90;;;;;;5064383;28;20043;-79
2023/05/11 01:03:23;;;;;;;0.10;0.10;;;10.50;99.90;;;;;;5056641;28;20033;-80
2023/05/11 01:06:12;;;;;;;0.10;0.10;;;10.60;99.90;;;;;;5058619;28;20043;-79
2023/05/11 01:09:08;;;;;;;0.10;0.10;;;10.60;99.90;;;;;;5038813;28;20170;-80
2023/05/11 01:11:55;;;;;;;0.15;0.15;;;10.50;99.90;;;;;;5064731;28;20039;-79
2023/05/11 01:14:33;;;;;;;0.17;0.17;;;10.40;99.90;;;;;;5051348;28;20033;-79
2023/05/11 01:17:08;;;;;;;1.67;1.55;;;10.50;99.90;;;;;;5064109;28;20055;-79
2023/05/11 01:19:52;;;;;;;0.75;0.40;;;10.70;99.90;;;;;;5050182;28;20155;-79
2023/05/11 01:22:55;;;;;;;0.50;0.45;;;10.60;99.90;;;;;;5047868;28;20029;-80
2023/05/11 01:25:42;;;;;;;0.90;0.65;;;10.60;99.90;;;;;;5028685;28;20027;-80
2023/05/11 01:28:32;;;;;;;0.10;0.10;;;10.80;99.90;;;;;;5052810;28;20032;-81
2023/05/11 01:31:11;;;;;;;0.10;0.10;;;10.70;99.90;;;;;;5056952;28;20021;-81
2023/05/11 01:33:46;;;;;;;0.15;0.15;;;10.80;99.90;;;;;;5049060;28;20637;-82
2023/05/11 01:36:13;;;;;;;0.65;0.65;;;10.70;99.90;;;;;;5037556;28;20559;-81
2023/05/11 01:38:39;;;;;;;;;;;10.60;99.90;;;;;;5047785;28;20017;-81
2023/05/11 01:41:12;;;;;;;0.70;0.60;;;10.60;99.90;;;;;;5056417;28;19966;-79
2023/05/11 01:43:40;;;;;;;0.20;0.20;;;10.70;99.90;;;;;;5057387;28;20033;-80
2023/05/11 01:46:07;;;;;;;0.98;0.95;;;10.70;99.90;;;;;;5051614;28;20115;-80
2023/05/11 01:48:38;;;;;;;1.02;0.88;;;10.70;99.90;;;;;;5051425;28;20197;-80
2023/05/11 01:51:04;;;;;;;0.50;0.50;;;10.60;99.90;;;;;;5056167;28;20045;-79
2023/05/11 01:53:34;;;;;;;0.30;0.30;;;10.60;99.90;;;;;;5052687;28;20024;-80
2023/05/11 01:56:01;;;;;;;0.00;0.00;;;10.60;99.90;;;;;;5054741;28;20277;-80
2023/05/11 01:58:27;;;;;;;;;;;10.60;99.90;;;;;;5056259;28;20047;-81
2023/05/11 02:00:54;;;;;;;0.82;0.82;;;10.60;99.90;;;;;;5057993;28;20268;-80
2023/05/11 02:03:22;;;;;;;1.90;1.10;;;10.50;99.90;;;;;;5047611;28;20132;-80
2023/05/11 02:05:50;;;;;;;0.10;0.10;;;10.50;99.90;;;;;;5056406;28;20029;-80
2023/05/11 02:08:16;;;;;;;0.20;0.20;;;10.60;99.90;;;;;;5050231;28;20076;-79
2023/05/11 02:10:44;;;;;;;0.10;0.10;;;10.50;99.90;;;;;;5058144;28;20020;-80
2023/05/11 02:13:11;;;;;;;0.25;0.25;;;10.50;99.90;;;;;;5033046;28;20032;-80
2023/05/11 02:15:41;;;;;;;2.72;1.48;;;10.50;99.90;;;;;;5047152;28;20033;-81
2023/05/11 02:18:11;;;;;;;0.40;0.40;;;10.50;99.90;;;;;;5052459;28;20076;-81
2023/05/11 02:20:40;;;;;;;0.10;0.10;;;10.50;99.90;;;;;;5059264;28;20033;-81
2023/05/11 02:23:08;;;;;;;6.68;0.93;;;10.40;99.90;;;;;;5052479;28;20028;-81
2023/05/11 02:25:35;;;;;;;0.30;0.30;;;10.50;99.90;;;;;;5057438;28;20040;-81
2023/05/11 02:28:01;;;;;;;0.40;0.40;;;10.40;99.90;;;;;;5044874;28;20037;-81
2023/05/11 02:30:30;;;;;;;1.50;1.40;;;10.30;99.90;;;;;;5038115;28;20037;-81
2023/05/11 02:33:00;;;;;;;2.67;1.15;;;10.30;99.90;;;;;;5044532;28;20056;-79
2023/05/11 02:35:29;;;;;;;0.25;0.25;;;10.40;99.90;;;;;;5045935;28;20108;-79
2023/05/11 02:38:00;;;;;;;0.75;0.75;;;10.50;99.90;;;;;;5030182;28;20040;-79
2023/05/11 02:40:35;;;;;;;0.30;0.30;;;10.50;99.90;;;;;;5037492;28;20024;-79
2023/05/11 02:43:12;;;;;;;0.40;0.40;;;10.50;99.90;;;;;;5042939;28;20496;-79
2023/05/11 02:45:43;;;;;;;4.70;1.75;;;10.40;99.90;;;;;;5050087;28;20031;-80
2023/05/11 02:48:16;;;;;;;0.32;0.32;;;10.40;99.90;;;;;;5057283;28;20036;-79
2023/05/11 02:50:43;;;;;;;0.47;0.43;;;10.40;99.90;;;;;;5028676;28;20067;-80
2023/05/11 02:53:14;;;;;;;0.13;0.13;;;10.30;99.90;;;;;;5050615;28;20039;-79
2023/05/11 02:55:41;;;;;;;1.45;0.55;;;10.40;99.90;;;;;;5057663;28;20110;-79
2023/05/11 02:58:07;;;;;;;0.43;0.30;;;10.40;99.90;;;;;;5044664;28;20052;-79
2023/05/11 03:00:34;;;;;;;0.20;0.20;;;10.30;99.90;;;;;;5032733;28;20032;-78
2023/05/11 03:02:59;;;;;;;2.95;1.58;;;10.40;99.90;;;;;;5056317;28;20025;-79
2023/05/11 03:05:26;;;;;;;0.30;0.30;;;10.30;99.90;;;;;;5053203;28;20511;-79
2023/05/11 03:07:56;;;;;;;0.57;0.57;;;10.40;99.90;;;;;;5053647;28;20108;-79
2023/05/11 03:10:24;;;;;;;0.25;0.25;;;10.40;99.90;;;;;;5051671;28;20079;-80
2023/05/11 03:12:51;;;;;;;0.80;0.32;;;10.30;99.90;;;;;;5042451;28;20035;-80
2023/05/11 03:15:17;;;;;;;0.37;0.37;;;10.40;99.90;;;;;;5042923;28;20060;-79
2023/05/11 03:17:45;;;;;;;3.63;2.53;;;10.30;99.90;;;;;;5055217;28;20106;-81
2023/05/11 03:20:11;;;;;;;0.10;0.10;;;10.20;99.90;;;;;;5044321;28;20017;-81
2023/05/11 03:22:37;;;;;;;0.75;0.45;;;10.10;99.90;;;;;;5053179;28;20028;-80
2023/05/11 03:25:04;;;;;;;0.43;0.43;;;10.30;99.90;;;;;;5051200;28;20040;-80
2023/05/11 03:27:32;;;;;;;0.10;0.10;;;10.40;99.90;;;;;;5043468;28;20027;-81
2023/05/11 03:29:59;;;;;;;0.10;0.10;;;10.40;99.90;;;;;;5049813;28;20017;-80
2023/05/11 03:32:24;;;;;;;0.80;0.80;;;10.40;99.90;;;;;;5055667;28;20036;-80
2023/05/11 03:34:51;;;;;;;1.55;1.45;;;10.50;99.90;;;;;;5042946;28;20818;-82
2023/05/11 03:37:19;;;;;;;1.27;0.65;;;10.20;99.90;;;;;;5058017;28;20036;-80
2023/05/11 03:39:47;;;;;;;0.10;0.10;;;10.20;99.90;;;;;;5062043;28;20086;-80
2023/05/11 03:42:14;;;;;;;0.22;0.22;;;10.30;99.90;;;;;;5049188;28;20039;-80
2023/05/11 03:44:44;;;;;;;1.17;1.02;;;10.30;99.90;;;;;;5047563;28;20075;-80
2023/05/11 03:47:11;;;;;;;0.10;0.10;;;10.40;99.90;;;;;;5042694;28;20025;-80
2023/05/11 03:49:37;;;;;;;0.63;0.63;;;10.30;99.90;;;;;;5042286;28;20049;-80
2023/05/11 03:52:04;;;;;;;0.30;0.30;;;10.20;99.90;;;;;;5051445;28;20036;-79
2023/05/11 03:54:30;;;;;;;0.22;0.22;;;10.10;99.90;;;;;;5035453;28;20055;-78
2023/05/11 03:56:56;;;;;;;0.25;0.25;;;10.00;99.90;;;;;;5049099;28;20065;-77
2023/05/11 03:59:23;;;;;;;0.10;0.10;;;9.80;99.90;;;;;;5052284;28;20120;-79
2023/05/11 04:01:52;;;;;;;0.38;0.38;;;9.80;99.90;;;;;;5049239;28;20095;-79
2023/05/11 04:04:28;;;;;;;2.45;1.75;;;9.90;99.90;;;;;;5059423;28;20139;-79
2023/05/11 04:06:54;;;;;;;0.43;0.43;;;9.90;99.90;;;;;;5048639;28;20029;-80
2023/05/11 04:09:20;;;;;;;0.10;0.10;;;9.80;99.90;;;;;;5053813;28;20490;-80
2023/05/11 04:11:46;;;;;;;0.25;0.25;;;9.90;99.90;;;;;;5051996;28;20396;-79
2023/05/11 04:14:11;;;;;;;0.10;0.10;;;10.00;99.90;;;;;;5043145;28;20477;-79
2023/05/11 04:16:37;;;;;;;0.75;0.75;;;10.00;99.90;;;;;;5053217;28;20020;-81
2023/05/11 04:19:03;;;;;;;0.80;0.80;;;10.00;99.90;;;;;;5031277;28;20479;-80
2023/05/11 04:21:28;;;;;;;1.15;0.60;;;10.00;99.90;;;;;;5060433;28;20392;-80
2023/05/11 04:23:54;;;;;;;0.20;0.20;;;9.90;99.90;;;;;;5056107;28;20059;-78
2023/05/11 04:26:20;;;;;;;0.10;0.10;;;10.00;99.90;;;;;;5055754;28;20083;-80
2023/05/11 04:28:46;;;;;;;0.67;0.67;;;10.00;99.90;;;;;;5054529;28;20550;-80
2023/05/11 04:31:11;;;;;;;0.10;0.10;;;10.00;99.90;;;;;;5048500;28;20047;-80
2023/05/11 04:33:37;;;;;;;1.38;0.93;;;10.10;99.90;;;;;;5060142;28;20028;-80
2023/05/11 04:36:03;;;;;;;0.68;0.45;;;10.10;99.90;;;;;;5051097;28;20036;-81
2023/05/11 04:38:29;;;;;;;9.80;2.20;;;10.10;99.90;;;;;;5046449;28;20108;-80
2023/05/11 04:40:55;;;;;;;0.10;0.10;;;10.10;99.90;;;;;;5051716;28;20032;-80
2023/05/11 04:43:21;;;;;;;0.10;0.10;;;10.30;99.90;;;;;;5045613;28;20029;-83
2023/05/11 04:45:50;;;;;;;0.65;0.65;;;10.10;99.90;;;;;;5044107;28;20621;-83
2023/05/11 04:48:16;;;;;;;0.10;0.10;;;10.10;99.90;;;;;;5045324;28;20035;-84
2023/05/11 04:50:42;;;;;;;0.20;0.20;;;10.20;99.90;;;;;;5048630;28;20049;-81
2023/05/11 04:53:08;;;;;;;0.60;0.60;;;10.20;99.90;;;;;;5049674;28;20107;-80
2023/05/11 04:55:34;;;;;;;0.30;0.30;;;10.30;99.90;;;;;;5046515;28;20032;-80
2023/05/11 04:58:00;;;;;;;0.50;0.50;;;10.10;99.90;;;;;;5047388;28;20040;-83
2023/05/11 05:00:25;;;;;;;0.85;0.85;;;10.10;99.90;;;;;;5045474;28;20052;-80
2023/05/11 05:02:51;;;;;;;4.47;1.55;;;10.10;99.90;;;;;;5063242;28;20059;-82
2023/05/11 05:05:17;;;;;;;0.10;0.10;;;10.10;99.90;;;;;;5061031;28;20056;-83
2023/05/11 05:07:43;;;;;;;11.68;0.43;;;10.10;99.90;;;;;;5049443;28;20500;-80
2023/05/11 05:10:11;;;;;;;3.15;1.25;;;10.00;99.90;;;;;;5057062;28;20060;-80
2023/05/11 05:12:40;;;;;;;0.32;0.32;;;10.20;99.90;;;;;;5057884;28;20074;-80
2023/05/11 05:15:06;;;;;;;0.30;0.30;;;10.20;99.90;;;;;;5058901;28;20025;-80
2023/05/11 05:17:32;;;;;;;0.85;0.77;;;10.30;99.90;;;;;;5052856;28;20143;-80
2023/05/11 05:19:58;;;;;;;0.28;0.28;;;10.30;99.90;;;;;;5052078;28;20064;-81
2023/05/11 05:22:24;;;;;;;0.10;0.10;;;10.20;99.90;;;;;;5051227;28;20849;-81
2023/05/11 05:24:50;;;;;;;0.13;0.13;;;10.10;99.90;;;;;;5056473;28;20028;-82
2023/05/11 05:27:16;;;;;;;0.88;0.88;;;10.30;99.90;;;;;;5049103;28;20427;-81
2023/05/11 05:29:41;;;;;;;0.17;0.17;;;10.30;99.90;;;;;;5048617;28;20025;-80
2023/05/11 05:32:07;;;;;;;0.00;0.00;;;10.20;99.90;;;;;;5056071;28;20031;-81
2023/05/11 05:34:33;;;;;;;1.45;1.15;;;10.20;99.90;;;;;;5039286;28;20082;-80
2023/05/11 05:36:59;;;;;;;0.40;0.40;;;10.30;99.90;;;;;;5063212;28;20621;-80
2023/05/11 05:39:24;;;;;;;2.70;0.98;;;10.40;99.90;;;;;;5058787;28;20083;-80
2023/05/11 05:41:50;;;;;;;0.32;0.32;;;10.40;99.90;;;;;;5061741;28;20020;-81
2023/05/11 05:44:16;;;;;;;0.10;0.10;;;10.60;99.90;;;;;;5056572;28;20036;-80
2023/05/11 05:46:42;;;;;;;0.43;0.43;;;10.60;99.90;;;;;;5060450;28;20488;-81
2023/05/11 05:49:08;;;;;;;0.28;0.28;;;10.90;99.90;;;;;;5059583;28;20032;-79
2023/05/11 05:51:33;;;;;;;0.10;0.10;;;11.00;99.90;;;;;;5061984;28;21285;-81
2023/05/11 05:53:59;;;;;;;0.30;0.25;;;11.00;99.90;;;;;;5058791;28;20021;-81
2023/05/11 05:56:25;;;;;;;0.20;0.20;;;11.10;99.90;;;;;;5056252;28;20038;-81
2023/05/11 05:58:51;;;;;;;0.10;0.10;;;11.30;99.90;;;;;;5062001;28;20488;-81
2023/05/11 06:01:17;;;;;;;0.97;0.60;;;11.40;99.90;;;;;;5058807;28;20041;-81
2023/05/11 06:03:44;;;;;;;4.25;0.88;;;11.60;99.90;;;;;;5061341;28;20024;-81
2023/05/11 06:06:10;;;;;;;;;;;11.70;99.90;;;;;;5052456;28;20064;-81
2023/05/11 06:08:36;;;;;;;0.98;0.43;;;11.80;99.90;;;;;;5045539;28;20716;-81
2023/05/11 06:11:02;;;;;;;1.10;0.63;;;11.60;99.90;;;;;;5038557;28;20033;-80
2023/05/11 06:13:28;;;;;;;0.00;0.00;;;11.20;99.90;;;;;;5049619;28;20037;-81
2023/05/11 06:15:53;;;;;;;4.65;0.55;;;11.20;99.90;;;;;;5032798;28;20039;-80
2023/05/11 06:18:19;;;;;;;13.83;0.83;;;11.30;99.90;;;;;;5044006;28;20040;-80
2023/05/11 06:20:45;;;;;;;2.53;0.60;;;11.30;99.90;;;;;;5043531;28;20024;-81
2023/05/11 06:23:11;;;;;;;0.43;0.43;;;11.20;99.90;;;;;;5052195;28;20098;-80
2023/05/11 06:25:36;;;;;;;0.08;0.08;;;11.20;99.90;;;;;;5043228;28;20036;-82
2023/05/11 06:28:02;;;;;;;0.53;0.53;;;11.20;99.90;;;;;;5047146;28;20491;-80
2023/05/11 06:30:28;;;;;;;0.40;0.40;;;11.50;99.90;;;;;;5062893;28;20024;-80
2023/05/11 06:32:54;;;;;;;0.45;0.45;;;12.00;99.90;;;;;;5049771;28;20044;-81
2023/05/11 06:35:21;;;;;;;0.20;0.20;;;12.60;98.80;;;;;;5054689;28;20535;-81
2023/05/11 06:37:47;;;;;;;0.13;0.13;;;13.10;97.20;;;;;;5059405;28;20124;-81
2023/05/11 06:40:14;;;;;;;5.43;0.85;;;12.80;97.50;;;;;;5062916;28;20031;-81
2023/05/11 06:42:40;;;;;;;0.10;0.10;;;13.00;96.90;;;;;;5061594;28;20028;-80
2023/05/11 06:45:07;;;;;;;0.30;0.30;;;13.10;96.10;;;;;;5047650;28;20020;-80
2023/05/11 06:47:33;;;;;;;0.40;0.40;;;13.50;96.30;;;;;;5049070;28;20020;-81
2023/05/11 06:49:59;;;;;;;0.37;0.37;;;13.20;96.50;;;;;;5034701;28;20052;-80
2023/05/11 06:52:24;;;;;;;2.13;1.58;;;12.50;97.80;;;;;;5059448;28;20029;-80
2023/05/11 06:54:50;;;;;;;0.10;0.10;;;12.20;98.50;;;;;;5053181;28;20435;-80
2023/05/11 06:57:16;;;;;;;0.50;0.30;;;12.30;98.30;;;;;;5062588;28;20117;-80
2023/05/11 06:59:42;;;;;;;0.60;0.60;;;12.30;98.70;;;;;;5062827;28;20024;-80
2023/05/11 07:02:08;;;;;;;0.47;0.47;;;13.10;96.80;;;;;;5053512;28;20637;-81
2023/05/11 07:04:34;;;;;;;1.47;0.63;;;15.60;94.40;;;;;;5053526;28;20116;-81
2023/05/11 07:07:00;;;;;;;4.67;0.97;;;20.10;74.40;;;;;;5054180;28;20064;-81
2023/05/11 07:09:25;;;;;;;0.10;0.10;;;20.40;71.70;;;;;;5061067;28;20123;-81
2023/05/11 07:11:51;;;;;;;0.10;0.10;;;19.60;72.10;;;;;;5058770;28;20029;-81
2023/05/11 07:14:17;;;;;;;0.00;0.00;;;18.30;77.60;;;;;;5050068;28;20025;-80
2023/05/11 07:16:43;;;;;;;0.52;0.52;;;18.40;77.90;;;;;;5055205;28;20029;-81
2023/05/11 07:19:09;;;;;;;0.10;0.10;;;20.90;73.70;;;;;;5058914;28;20074;-81
2023/05/11 07:21:37;;;;;;;0.13;0.13;;;19.60;72.20;;;;;;5061356;28;20066;-81
2023/05/11 07:24:03;;;;;;;1.85;1.02;;;20.40;70.80;;;;;;5067589;28;20040;-82
2023/05/11 07:26:29;;;;;;;0.13;0.13;;;21.70;68.20;;;;;;5057035;28;20012;-81
2023/05/11 07:28:55;;;;;;;2.90;0.93;;;21.70;64.50;;;;;;5062962;28;20031;-81
2023/05/11 07:31:20;;;;;;;0.10;0.10;;;18.20;74.30;;;;;;5061884;28;20024;-81
2023/05/11 07:33:46;;;;;;;0.67;0.67;;;17.40;79.60;;;;;;5061792;28;20552;-81
2023/05/11 07:36:12;;;;;;;0.00;0.00;;;15.40;85.10;;;;;;5060287;28;20028;-80
2023/05/11 07:38:38;;;;;;;0.87;0.40;;;14.50;89.20;;;;;;5062309;28;20059;-80
2023/05/11 07:41:04;;;;;;;0.52;0.52;;;13.70;91.10;;;;;;5058029;28;20024;-81
2023/05/11 07:43:29;;;;;;;0.17;0.17;;;13.40;92.10;;;;;;5062667;28;20040;-80
2023/05/11 07:45:55;;;;;;;0.27;0.27;;;13.10;93.90;;;;;;5060399;28;20027;-81
2023/05/11 07:48:21;;;;;;;0.63;0.63;;;12.70;94.50;;;;;;5052753;28;20021;-80
2023/05/11 07:50:48;;;;;;;0.20;0.20;;;12.80;94.10;;;;;;5052744;28;20044;-80
2023/05/11 07:53:14;;;;;;;29.83;0.65;;;12.80;94.40;;;;;;5042652;28;20057;-80
2023/05/11 07:55:40;;;;;;;0.10;0.10;;;13.20;93.90;;;;;;5055357;28;20056;-80
2023/05/11 07:58:06;;;;;;;2.13;0.60;;;13.30;93.90;;;;;;5058257;28;20128;-80
2023/05/11 08:00:32;;;;;;;0.40;0.40;;;13.20;93.60;;;;;;5047066;28;20047;-81
2023/05/11 08:02:58;;;;;;;0.68;0.68;;;13.10;94.20;;;;;;5059440;28;20480;-80
2023/05/11 08:05:23;;;;;;;0.20;0.20;;;13.20;94.30;;;;;;5054767;28;20032;-80
2023/05/11 08:07:49;;;;;;;0.00;0.00;;;13.50;93.90;;;;;;5057391;28;20025;-80
2023/05/11 08:10:15;;;;;;;0.10;0.10;;;14.00;93.00;;;;;;5049398;28;20579;-80
2023/05/11 08:12:40;;;;;;;0.43;0.43;;;15.20;91.90;;;;;;5053663;28;20066;-80
2023/05/11 08:15:07;;;;;;;8.03;0.67;;;18.70;77.00;;;;;;5044231;28;20040;-81
2023/05/11 08:17:32;;;;;;;0.00;0.00;;;18.40;78.20;;;;;;5024340;28;20511;-81
2023/05/11 08:19:58;;;;;;;0.10;0.10;;;18.90;76.10;;;;;;5042029;28;20033;-81
2023/05/11 08:22:24;;;;;;;0.03;0.03;;;18.80;78.30;;;;;;5045427;28;20039;-80
2023/05/11 08:24:50;;;;;;;0.10;0.10;;;19.80;76.60;;;;;;5042975;28;20033;-81
2023/05/11 08:27:16;;;;;;;3.23;1.20;;;19.30;73.60;;;;;;5045794;28;20032;-81
2023/05/11 08:29:41;;;;;;;0.00;0.00;;;16.90;78.30;;;;;;5062199;28;20269;-80
2023/05/11 08:32:07;;;;;;;0.10;0.10;;;16.20;82.40;;;;;;5061715;28;20035;-81
2023/05/11 08:34:33;;;;;;;0.73;0.30;;;15.80;83.10;;;;;;5056982;28;20082;-81
2023/05/11 08:37:00;;;;;;;0.00;0.00;;;15.10;85.50;;;;;;5062044;28;20043;-80
2023/05/11 08:39:27;;;;;;;0.05;0.05;;;15.20;86.50;;;;;;5059431;28;20056;-81
2023/05/11 08:41:55;;;;;;;0.30;0.30;;;15.30;86.00;;;;;;5062325;28;20607;-81
2023/05/11 08:44:22;;;;;;;0.00;0.00;;;15.50;86.00;;;;;;5059341;28;20071;-81
2023/05/11 08:46:51;;;;;;;0.00;0.00;;;16.50;85.30;;;;;;5059573;28;20095;-81
2023/05/11 08:49:18;;;;;;;0.05;0.05;;;24.50;67.50;;;;;;5058945;28;20169;-82
2023/05/11 08:51:45;;;;;;;0.32;0.32;;;25.50;58.10;;;;;;5061300;28;20067;-81
2023/05/11 08:54:11;;;;;;;0.30;0.20;;;22.90;62.20;;;;;;5055422;28;20370;-81
2023/05/11 08:56:40;;;;;;;0.00;0.00;;;23.60;62.10;;;;;;5059058;28;20052;-81
2023/05/11 08:59:07;;;;;;;0.88;0.52;;;23.20;58.80;;;;;;5054623;28;20025;-81
2023/05/11 09:01:33;;;;;;;;;;;24.60;60.30;;;;;;5056221;28;20801;-81
2023/05/11 09:03:59;;;;;;;0.00;0.00;;;25.80;53.80;;;;;;5057408;28;19905;-81
2023/05/11 09:06:26;;;;;;;0.13;0.13;;;21.90;58.60;;;;;;5049415;28;20031;-81
2023/05/11 09:08:52;;;;;;;0.25;0.20;;;23.00;59.20;;;;;;5046843;28;20024;-81
2023/05/11 09:11:18;;;;;;;1.25;0.80;;;19.70;65.10;;;;;;5065955;28;20028;-81
2023/05/11 09:13:45;;;;;;;0.98;0.98;;;17.80;68.90;;;;;;5053094;28;20078;-81
2023/05/11 09:16:10;;;;;;;0.10;0.10;;;16.90;72.90;;;;;;5059416;28;20036;-81
2023/05/11 09:18:49;;;;;;;0.10;0.10;;;23.30;65.60;;;;;;5069978;28;20036;-81
2023/05/11 09:21:15;;;;;;;0.00;0.00;;;21.40;61.70;;;;;;5058254;28;20290;-80
2023/05/11 09:23:40;;;;;;;0.10;0.10;;;20.30;64.70;;;;;;5061953;28;20058;-81
2023/05/11 09:26:18;;;;;;;0.13;0.13;;;19.50;64.90;;;;;;5061759;28;20032;-80
2023/05/11 09:28:51;;;;;;;0.00;0.00;;;21.70;59.30;;;;;;5056382;28;20375;-80
2023/05/11 09:31:44;;;;;;;0.00;0.00;;;26.00;56.60;;;;;;5060615;28;20028;-82
2023/05/11 09:34:13;;;;;;;0.43;0.43;;;25.40;50.40;;;;;;5071983;28;20028;-81
2023/05/11 09:36:39;;;;;;;0.00;0.00;;;26.90;52.70;;;;;;5063014;28;20114;-82
2023/05/11 09:39:05;;;;;;;0.20;0.20;;;22.50;55.50;;;;;;5063337;28;20024;-81
2023/05/11 09:41:31;;;;;;;0.00;0.00;;;20.50;60.40;;;;;;5062002;28;20381;-81
2023/05/11 09:44:13;;;;;;;0.00;0.00;;;19.60;61.40;;;;;;5062854;28;20028;-81
2023/05/11 09:46:42;;;;;;;0.00;0.00;;;18.50;63.20;;;;;;5053942;28;20024;-80
2023/05/11 09:49:09;;;;;;;0.00;0.00;;;18.40;64.30;;;;;;5061801;28;20033;-81
2023/05/11 09:51:39;;;;;;;0.00;0.00;;;17.90;64.20;;;;;;5058387;28;20414;-80
2023/05/11 09:54:21;;;;;;;0.13;0.13;;;17.30;64.40;;;;;;5058395;28;20036;-81
2023/05/11 09:56:57;;;;;;;0.00;0.00;;;16.60;69.20;;;;;;5058088;28;20494;-80
2023/05/11 09:59:41;;;;;;;0.30;0.30;;;16.40;68.90;;;;;;5060390;28;20083;-81
2023/05/11 10:02:20;;;;;;;0.20;0.20;;;16.60;68.90;;;;;;5063381;28;20028;-80
2023/05/11 10:04:47;;;;;;;1.27;0.55;;;17.30;67.40;;;;;;5056950;28;20054;-81
2023/05/11 10:07:30;;;;;;;0.00;0.00;;;17.70;66.10;;;;;;5061652;28;20189;-80
2023/05/11 10:09:57;;;;;;;0.00;0.00;;;17.80;65.70;;;;;;5052941;28;20112;-81
2023/05/11 10:12:24;;;;;;;0.43;0.13;;;18.00;64.80;;;;;;5062044;28;20274;-81
2023/05/11 10:15:09;;;;;;;0.00;0.00;;;18.60;64.30;;;;;;5059436;28;20024;-81
2023/05/11 10:17:36;;;;;;;0.00;0.00;;;19.10;65.00;;;;;;5059646;28;20085;-81
2023/05/11 10:20:04;;;;;;;0.10;0.10;;;20.90;61.50;;;;;;5057318;28;20053;-80
2023/05/11 10:22:30;;;;;;;1.88;0.47;;;20.90;62.90;;;;;;5060339;28;20024;-81
2023/05/11 10:24:57;;;;;;;4.45;0.88;;;22.90;57.90;;;;;;5065313;28;20056;-81
2023/05/11 10:27:24;;;;;;;0.00;0.00;;;21.20;59.00;;;;;;5064167;28;20047;-80
2023/05/11 10:29:50;;;;;;;0.00;0.00;;;20.20;62.60;;;;;;5056482;28;20025;-81
2023/05/11 10:32:17;;;;;;;0.00;0.00;;;20.20;63.60;;;;;;5044910;28;20039;-80
2023/05/11 10:34:45;;;;;;;0.00;0.00;;;19.90;62.60;;;;;;5058804;28;20032;-80
2023/05/11 10:37:12;;;;;;;0.00;0.00;;;18.30;66.70;;;;;;5062153;28;20075;-81
2023/05/11 10:39:39;;;;;;;0.90;0.65;;;17.30;70.70;;;;;;5060872;28;20028;-80
2023/05/11 10:42:05;;;;;;;0.00;0.00;;;17.00;70.50;;;;;;5061714;28;20039;-80
2023/05/11 10:44:55;;;;;;;0.75;0.25;;;16.40;70.00;;;;;;5050879;28;20025;-80
2023/05/11 10:47:21;;;;;;;0.00;0.00;;;15.50;73.00;;;;;;5060079;28;20024;-80
2023/05/11 10:50:06;;;;;;;0.00;0.00;;;15.00;77.30;;;;;;5059132;28;20794;-80
2023/05/11 10:53:05;;;;;;;0.00;0.00;;;15.50;77.40;;;;;;5059490;28;20025;-81
2023/05/11 10:56:05;;;;;;;0.10;0.10;;;15.20;78.50;;;;;;5057853;28;20041;-81
2023/05/11 10:58:58;;;;;;;0.00;0.00;;;15.30;80.80;;;;;;5018925;28;20509;-80
2023/05/11 11:01:30;;;;;;;0.00;0.00;;;15.50;81.10;;;;;;5049320;28;20029;-81
2023/05/11 11:04:01;;;;;;;0.28;0.28;;;15.70;81.30;;;;;;5062608;28;20025;-80
2023/05/11 11:06:28;;;;;;;0.20;0.20;;;15.80;81.60;;;;;;5055199;28;20036;-80
2023/05/11 11:08:57;;;;;;;0.00;0.00;;;15.80;83.60;;;;;;5061254;28;20028;-80
2023/05/11 11:11:41;;;;;;;0.30;0.30;;;16.20;86.10;;;;;;5056602;28;20024;-81
2023/05/11 11:14:08;;;;;;;0.00;0.00;;;16.60;88.10;;;;;;5056802;28;20013;-80
2023/05/11 11:16:38;;;;;;;0.00;0.00;;;16.50;86.00;;;;;;5058661;28;20493;-80
2023/05/11 11:19:29;;;;;;;0.10;0.10;;;17.50;84.90;;;;;;5061013;28;20114;-81
2023/05/11 11:21:58;;;;;;;0.25;0.25;;;17.40;77.60;;;;;;5059723;28;20024;-80
2023/05/11 11:24:36;;;;;;;0.00;0.00;;;16.30;78.50;;;;;;5057559;28;20046;-81
2023/05/11 11:27:02;;;;;;;0.10;0.10;;;15.80;89.80;;;;;;5057722;28;20021;-80
2023/05/11 11:29:29;;;;;;;0.00;0.00;;;15.40;90.40;;;;;;5049169;28;20029;-80
2023/05/11 11:32:18;;;;;;;0.00;0.00;;;14.90;83.00;;;;;;5043750;28;20042;-81
2023/05/11 11:34:45;;;;;;;0.10;0.10;;;14.50;85.50;;;;;;5061013;28;20146;-80
2023/05/11 11:37:12;;;;;;;0.00;0.00;;;14.40;85.20;;;;;;5061326;28;20067;-80
2023/05/11 11:39:41;;;;;;;0.03;0.03;;;14.60;84.10;;;;;;5060223;28;20036;-81
2023/05/11 11:42:11;;;;;;;1.55;0.38;;;14.60;83.70;;;;;;5060609;28;20058;-81
2023/05/11 11:44:37;;;;;;;0.10;0.10;;;14.70;81.50;;;;;;5050200;28;20029;-81
2023/05/11 11:47:15;;;;;;;0.00;0.00;;;14.70;82.30;;;;;;5062660;28;20479;-81
2023/05/11 11:49:43;;;;;;;0.00;0.00;;;14.90;82.90;;;;;;5057396;28;20384;-81
2023/05/11 11:52:27;;;;;;;0.00;0.00;;;14.90;83.30;;;;;;5059043;28;20024;-81
2023/05/11 11:54:58;;;;;;;0.00;0.00;;;15.00;81.40;;;;;;5059065;28;20029;-80
2023/05/11 11:57:33;;;;;;;0.00;0.00;;;15.30;82.20;;;;;;5054682;28;20091;-80
2023/05/11 11:59:59;;;;;;;0.10;0.10;;;16.00;84.40;;;;;;5058531;28;20034;-80
2023/05/11 12:02:26;;;;;;;0.17;0.17;;;16.50;84.50;;;;;;5052757;28;20120;-81
2023/05/11 12:05:13;;;;;;;0.00;0.00;;;16.90;78.80;;;;;;5057919;28;20033;-81
2023/05/11 12:07:44;;;;;;;0.05;0.05;;;17.40;74.60;;;;;;5060570;28;20081;-81
2023/05/11 12:10:12;;;;;;;0.00;0.00;;;17.40;68.20;;;;;;5061647;28;20095;-81
2023/05/11 12:12:38;;;;;;;0.08;0.08;;;17.10;70.20;;;;;;5061680;28;20021;-81
2023/05/11 12:15:06;;;;;;;0.00;0.00;;;17.10;74.30;;;;;;5059349;28;20035;-81
2023/05/11 12:17:33;;;;;;;0.28;0.28;;;17.40;77.30;;;;;;5041863;28;20036;-81
2023/05/11 12:20:16;;;;;;;0.00;0.00;;;17.40;78.20;;;;;;5057878;28;20028;-81
2023/05/11 12:22:43;;;;;;;0.10;0.10;;;16.90;76.00;;;;;;5059799;28;20024;-81
2023/05/11 12:25:53;;;;;;;0.00;0.00;;;16.90;78.40;;;;;;5049675;28;20021;-81
2023/05/11 12:28:18;;;;;;;0.10;0.10;;;16.70;74.70;;;;;;5055227;28;20028;-81
2023/05/11 12:30:54;;;;;;;0.00;0.00;;;16.50;77.80;;;;;;5040122;28;20025;-81
2023/05/11 12:33:20;;;;;;;0.40;0.40;;;16.10;80.90;;;;;;5060801;28;20021;-81
2023/05/11 12:35:54;;;;;;;0.10;0.10;;;15.80;83.20;;;;;;5061115;28;20036;-81
2023/05/11 12:38:20;;;;;;;0.00;0.00;;;15.80;82.40;;;;;;5059487;28;20916;-81
2023/05/11 12:40:50;;;;;;;0.10;0.10;;;15.60;83.80;;;;;;5058646;28;20390;-81
2023/05/11 12:43:21;;;;;;;0.10;0.10;;;15.70;87.00;;;;;;5061285;28;20259;-80
2023/05/11 12:45:47;;;;;;;0.00;0.00;;;16.40;84.40;;;;;;5043039;28;20471;-81
2023/05/11 12:48:14;;;;;;;0.00;0.00;;;16.90;86.30;;;;;;5056233;28;20024;-81
2023/05/11 12:50:44;;;;;;;0.00;0.00;;;17.00;85.10;;;;;;5056121;28;20056;-81
2023/05/11 12:53:14;;;;;;;0.20;0.20;;;17.30;84.10;;;;;;5061097;28;20032;-81
2023/05/11 12:55:40;;;;;;;0.10;0.10;;;17.30;81.90;;;;;;5060869;28;20107;-81